Time;durP1;ratioP1;P1;durP2;ratioP2;P2;SDS_P1;SDS_P2;PMS_P1;PMS_P2;Temp;Humidity;BMP_temperature;BMP_pressure;BME280_temperature;BME280_humidity;BME280_pressure;Samples;Min_cycle;Max_cycle;Signal;HPM_P1;HPM_P2
2021/12/31 00:01:58;;;;;;;4.13;3.50;;;;;;;;;;5052397;28;20207;-76
2021/12/31 00:04:26;;;;;;;3.40;3.10;;;;;;;;;;5053358;28;20626;-75
2021/12/31 00:06:53;;;;;;;4.05;3.13;;;;;;;;;;5056365;28;20207;-75
2021/12/31 00:09:21;;;;;;;3.85;3.17;;;;;;;;;;5052080;28;20211;-75
2021/12/31 00:11:48;;;;;;;3.72;3.42;;;;;;;;;;5056017;28;20198;-75
2021/12/31 00:14:16;;;;;;;3.95;3.53;;;;;;;;;;5057358;28;20206;-75
2021/12/31 00:16:43;;;;;;;4.28;3.60;;;;;;;;;;5049668;28;20199;-75
2021/12/31 00:19:11;;;;;;;5.18;3.80;;;;;;;;;;5061364;28;20199;-75
2021/12/31 00:21:38;;;;;;;3.20;3.00;;;;;;;;;;5054801;28;20191;-75
2021/12/31 00:24:06;;;;;;;4.85;3.40;;;;;;;;;;5051964;28;20202;-75
2021/12/31 00:26:34;;;;;;;4.10;3.70;;;;;;;;;;5055239;28;20320;-76
2021/12/31 00:29:01;;;;;;;3.72;3.40;;;;;;;;;;5056825;28;20221;-75
2021/12/31 00:31:28;;;;;;;3.60;2.20;;;;;;;;;;5052998;28;20211;-75
2021/12/31 00:33:55;;;;;;;2.97;2.67;;;;;;;;;;5052447;28;20195;-75
2021/12/31 00:36:22;;;;;;;2.55;2.35;;;;;;;;;;5055473;28;20198;-75
2021/12/31 00:38:49;;;;;;;6.03;3.45;;;;;;;;;;5051812;28;20202;-75
2021/12/31 00:41:16;;;;;;;3.63;3.28;;;;;;;;;;5059673;28;20194;-75
2021/12/31 00:43:45;;;;;;;3.97;2.75;;;;;;;;;;5059687;28;20199;-74
2021/12/31 00:46:12;;;;;;;6.40;2.85;;;;;;;;;;5049384;28;20203;-74
2021/12/31 00:48:39;;;;;;;3.72;2.33;;;;;;;;;;5050391;28;20231;-74
2021/12/31 00:51:06;;;;;;;4.50;2.90;;;;;;;;;;5051019;28;20219;-74
2021/12/31 00:53:33;;;;;;;5.32;2.85;;;;;;;;;;5049785;28;20202;-75
2021/12/31 00:56:00;;;;;;;3.88;2.65;;;;;;;;;;5047446;28;20211;-73
2021/12/31 00:58:27;;;;;;;4.30;3.28;;;;;;;;;;5048323;28;20199;-75
2021/12/31 01:00:55;;;;;;;6.95;2.65;;;;;;;;;;5047822;28;20222;-74
2021/12/31 01:03:22;;;;;;;3.47;3.10;;;;;;;;;;5051287;28;20199;-74
2021/12/31 01:05:49;;;;;;;4.53;2.35;;;;;;;;;;5050473;28;20678;-74
2021/12/31 01:08:16;;;;;;;8.85;2.85;;;;;;;;;;5050807;28;20654;-74
2021/12/31 01:10:44;;;;;;;3.15;2.60;;;;;;;;;;5044728;28;20222;-75
2021/12/31 01:13:18;;;;;;;5.13;2.63;;;;;;;;;;5062899;28;20641;-74
2021/12/31 01:15:46;;;;;;;3.00;2.40;;;;;;;;;;5046164;28;20662;-74
2021/12/31 01:18:20;;;;;;;3.20;2.70;;;;;;;;;;5049141;28;20653;-74
2021/12/31 01:20:48;;;;;;;3.05;1.90;;;;;;;;;;5042079;28;20187;-74
2021/12/31 01:23:17;;;;;;;2.97;2.40;;;;;;;;;;5047804;28;20195;-74
2021/12/31 01:25:44;;;;;;;7.72;2.80;;;;;;;;;;5044199;28;20306;-74
2021/12/31 01:28:11;;;;;;;3.47;2.45;;;;;;;;;;5050261;28;20195;-74
2021/12/31 01:30:39;;;;;;;3.47;2.33;;;;;;;;;;5047169;28;20214;-74
2021/12/31 01:33:06;;;;;;;4.28;2.05;;;;;;;;;;5051313;28;20198;-74
2021/12/31 01:35:36;;;;;;;2.17;1.90;;;;;;;;;;5049156;28;20199;-74
2021/12/31 01:38:04;;;;;;;3.05;1.85;;;;;;;;;;5048962;28;20253;-74
2021/12/31 01:40:31;;;;;;;4.00;2.00;;;;;;;;;;5048292;28;20206;-74
2021/12/31 01:42:58;;;;;;;2.35;2.00;;;;;;;;;;5044940;28;20202;-74
2021/12/31 01:45:29;;;;;;;2.47;2.28;;;;;;;;;;5048592;28;20207;-74
2021/12/31 01:48:04;;;;;;;2.45;2.25;;;;;;;;;;5049610;28;20670;-74
2021/12/31 01:50:31;;;;;;;4.57;2.25;;;;;;;;;;5048900;28;20206;-73
2021/12/31 01:53:00;;;;;;;2.55;2.00;;;;;;;;;;5042681;28;20215;-74
2021/12/31 01:55:29;;;;;;;2.97;2.13;;;;;;;;;;5047448;28;20210;-74
2021/12/31 01:57:56;;;;;;;3.92;2.15;;;;;;;;;;5051749;28;20201;-74
2021/12/31 02:00:23;;;;;;;5.43;1.80;;;;;;;;;;5055144;28;20206;-75
2021/12/31 02:02:50;;;;;;;3.13;2.33;;;;;;;;;;5056554;28;20202;-74
2021/12/31 02:05:17;;;;;;;3.08;1.92;;;;;;;;;;5055831;28;20190;-74
2021/12/31 02:07:45;;;;;;;3.95;2.10;;;;;;;;;;5067395;28;20199;-74
2021/12/31 02:10:13;;;;;;;7.45;2.88;;;;;;;;;;5054402;28;20681;-74
2021/12/31 02:12:42;;;;;;;2.58;1.67;;;;;;;;;;5055478;28;20554;-74
2021/12/31 02:15:10;;;;;;;5.13;2.10;;;;;;;;;;5050176;28;20198;-74
2021/12/31 02:17:38;;;;;;;2.60;1.50;;;;;;;;;;5048299;28;20238;-73
2021/12/31 02:20:07;;;;;;;3.67;2.13;;;;;;;;;;5048198;28;20199;-73
2021/12/31 02:22:37;;;;;;;2.05;1.60;;;;;;;;;;5046688;28;20613;-73
2021/12/31 02:25:05;;;;;;;2.13;1.60;;;;;;;;;;5048038;28;20191;-74
2021/12/31 02:27:32;;;;;;;2.17;1.70;;;;;;;;;;5049600;28;20191;-74
2021/12/31 02:29:59;;;;;;;2.25;1.70;;;;;;;;;;5043646;28;20229;-74
2021/12/31 02:32:26;;;;;;;2.35;1.83;;;;;;;;;;5047809;28;20632;-75
2021/12/31 02:34:53;;;;;;;2.53;1.55;;;;;;;;;;5050150;28;20195;-74
2021/12/31 02:37:21;;;;;;;2.53;1.60;;;;;;;;;;5046713;28;20203;-74
2021/12/31 02:39:48;;;;;;;3.03;1.77;;;;;;;;;;5047745;28;20593;-74
2021/12/31 02:42:15;;;;;;;2.33;1.60;;;;;;;;;;5053068;28;20190;-74
2021/12/31 02:44:43;;;;;;;3.15;1.50;;;;;;;;;;5053610;28;20190;-74
2021/12/31 02:47:10;;;;;;;5.13;1.90;;;;;;;;;;5052644;28;20695;-74
2021/12/31 02:49:39;;;;;;;2.28;1.80;;;;;;;;;;5050983;28;20214;-73
2021/12/31 02:52:07;;;;;;;4.60;1.95;;;;;;;;;;5054429;28;20240;-74
2021/12/31 02:54:37;;;;;;;4.22;2.25;;;;;;;;;;5053640;28;20187;-74
2021/12/31 02:57:05;;;;;;;3.50;1.90;;;;;;;;;;5052781;28;20595;-74
2021/12/31 02:59:32;;;;;;;2.15;1.42;;;;;;;;;;5052370;28;20211;-74
2021/12/31 03:01:59;;;;;;;2.88;1.70;;;;;;;;;;5050421;28;20701;-74
2021/12/31 03:04:27;;;;;;;4.93;1.98;;;;;;;;;;5050406;28;20195;-74
2021/12/31 03:06:54;;;;;;;3.50;2.10;;;;;;;;;;5062257;28;20220;-74
2021/12/31 03:09:23;;;;;;;2.55;1.52;;;;;;;;;;5046502;28;20207;-74
2021/12/31 03:11:54;;;;;;;4.13;1.70;;;;;;;;;;5051983;28;20229;-74
2021/12/31 03:14:21;;;;;;;1.75;1.60;;;;;;;;;;5062726;28;20227;-74
2021/12/31 03:16:48;;;;;;;2.55;1.90;;;;;;;;;;5054581;28;20565;-74
2021/12/31 03:19:15;;;;;;;2.53;2.08;;;;;;;;;;5060695;28;20566;-74
2021/12/31 03:21:42;;;;;;;2.15;1.48;;;;;;;;;;5049106;28;20972;-74
2021/12/31 03:24:09;;;;;;;1.63;1.52;;;;;;;;;;5049084;28;20195;-74
2021/12/31 03:26:36;;;;;;;3.35;1.40;;;;;;;;;;5051079;28;20195;-74
2021/12/31 03:29:05;;;;;;;1.30;1.20;;;;;;;;;;5051368;28;20681;-73
2021/12/31 03:31:32;;;;;;;2.17;1.40;;;;;;;;;;5050349;28;20713;-74
2021/12/31 03:33:59;;;;;;;1.50;1.40;;;;;;;;;;5050001;28;20195;-74
2021/12/31 03:36:32;;;;;;;3.33;1.77;;;;;;;;;;5051421;28;20191;-72
2021/12/31 03:38:59;;;;;;;1.58;1.20;;;;;;;;;;5049279;28;20645;-73
2021/12/31 03:41:26;;;;;;;5.10;2.10;;;;;;;;;;5046588;28;20198;-75
2021/12/31 03:43:53;;;;;;;2.47;1.55;;;;;;;;;;5051035;28;20201;-75
2021/12/31 03:46:22;;;;;;;1.95;1.15;;;;;;;;;;5053951;28;20203;-74
2021/12/31 03:48:49;;;;;;;4.50;1.52;;;;;;;;;;5050109;28;20190;-74
2021/12/31 03:51:16;;;;;;;2.55;1.55;;;;;;;;;;5051723;28;20222;-74
2021/12/31 03:53:43;;;;;;;6.38;1.70;;;;;;;;;;5045037;28;20214;-74
2021/12/31 03:56:10;;;;;;;1.50;1.33;;;;;;;;;;5049665;28;20191;-74
2021/12/31 03:58:37;;;;;;;3.58;1.48;;;;;;;;;;5050098;28;20207;-74
2021/12/31 04:01:04;;;;;;;2.05;1.30;;;;;;;;;;5050728;28;20690;-75
2021/12/31 04:03:33;;;;;;;2.25;1.33;;;;;;;;;;5053055;28;20202;-74
2021/12/31 04:06:00;;;;;;;2.78;1.45;;;;;;;;;;5063278;28;20207;-74
2021/12/31 04:08:27;;;;;;;3.13;1.15;;;;;;;;;;5057274;28;20605;-74
2021/12/31 04:10:54;;;;;;;2.38;1.83;;;;;;;;;;5052725;28;20709;-74
2021/12/31 04:13:21;;;;;;;2.60;1.73;;;;;;;;;;5055805;28;20195;-74
2021/12/31 04:15:48;;;;;;;3.08;1.90;;;;;;;;;;5047743;28;20206;-74
2021/12/31 04:18:15;;;;;;;2.50;1.30;;;;;;;;;;5046734;28;20194;-73
2021/12/31 04:20:45;;;;;;;2.55;1.83;;;;;;;;;;5059075;28;20653;-72
2021/12/31 04:23:15;;;;;;;1.50;0.90;;;;;;;;;;5043223;28;20378;-72
2021/12/31 04:25:42;;;;;;;2.80;1.70;;;;;;;;;;5050705;28;20195;-72
2021/12/31 04:28:09;;;;;;;1.90;1.52;;;;;;;;;;5050347;28;20207;-72
2021/12/31 04:30:36;;;;;;;1.97;1.40;;;;;;;;;;5017114;28;1043139;-72
2021/12/31 04:33:03;;;;;;;2.05;1.45;;;;;;;;;;5054222;28;20202;-72
2021/12/31 04:35:31;;;;;;;1.60;1.30;;;;;;;;;;5053072;28;20210;-72
2021/12/31 04:37:59;;;;;;;1.95;1.30;;;;;;;;;;5052748;28;20649;-72
2021/12/31 04:40:26;;;;;;;2.67;1.67;;;;;;;;;;5046119;28;20199;-72
2021/12/31 04:42:53;;;;;;;2.10;1.70;;;;;;;;;;5044602;28;20229;-72
2021/12/31 04:45:20;;;;;;;2.75;1.88;;;;;;;;;;5049516;28;20201;-73
2021/12/31 04:47:48;;;;;;;4.22;1.70;;;;;;;;;;5056902;28;20202;-73
2021/12/31 04:50:15;;;;;;;2.90;1.73;;;;;;;;;;5069922;28;20225;-73
2021/12/31 04:52:42;;;;;;;1.50;1.40;;;;;;;;;;5048655;28;20217;-73
2021/12/31 04:55:11;;;;;;;1.88;1.35;;;;;;;;;;5048030;28;20192;-74
2021/12/31 04:57:38;;;;;;;4.90;1.55;;;;;;;;;;5048274;28;20207;-72
2021/12/31 05:00:06;;;;;;;1.83;1.30;;;;;;;;;;5052464;28;20223;-72
2021/12/31 05:02:33;;;;;;;2.25;1.33;;;;;;;;;;5047636;28;20205;-72
2021/12/31 05:05:01;;;;;;;1.83;1.30;;;;;;;;;;5060347;28;20600;-72
2021/12/31 05:07:28;;;;;;;1.85;1.15;;;;;;;;;;5060225;28;20568;-72
2021/12/31 05:09:55;;;;;;;2.08;1.65;;;;;;;;;;5049929;28;20681;-72
2021/12/31 05:12:27;;;;;;;2.17;1.40;;;;;;;;;;5054848;28;20222;-73
2021/12/31 05:14:54;;;;;;;2.15;1.25;;;;;;;;;;5051894;28;22082;-72
2021/12/31 05:17:21;;;;;;;2.83;1.02;;;;;;;;;;5050416;28;20198;-73
2021/12/31 05:19:48;;;;;;;2.78;1.73;;;;;;;;;;5059235;28;20642;-72
2021/12/31 05:22:16;;;;;;;2.63;1.45;;;;;;;;;;5053202;28;20197;-72
2021/12/31 05:24:43;;;;;;;3.75;1.40;;;;;;;;;;5041610;28;20221;-73
2021/12/31 05:27:10;;;;;;;2.92;1.35;;;;;;;;;;5047254;28;20197;-74
2021/12/31 05:29:38;;;;;;;2.15;1.80;;;;;;;;;;5050521;28;20202;-74
2021/12/31 05:32:06;;;;;;;1.90;1.23;;;;;;;;;;5042777;28;20222;-73
2021/12/31 05:34:33;;;;;;;2.10;1.27;;;;;;;;;;5050616;28;20194;-74
2021/12/31 05:37:00;;;;;;;2.30;1.52;;;;;;;;;;5050040;28;20206;-73
2021/12/31 05:39:27;;;;;;;3.45;1.30;;;;;;;;;;5049421;28;20290;-74
2021/12/31 05:41:54;;;;;;;2.47;1.23;;;;;;;;;;5046862;28;20205;-74
2021/12/31 05:44:21;;;;;;;3.85;1.60;;;;;;;;;;5050295;28;20202;-74
2021/12/31 05:46:52;;;;;;;2.67;1.60;;;;;;;;;;5047495;28;20199;-74
2021/12/31 05:49:19;;;;;;;2.20;1.35;;;;;;;;;;5049357;28;20205;-74
2021/12/31 05:51:46;;;;;;;2.70;1.67;;;;;;;;;;5048533;28;20306;-74
2021/12/31 05:54:13;;;;;;;3.00;1.23;;;;;;;;;;5038735;28;20204;-73
2021/12/31 05:56:40;;;;;;;2.25;1.38;;;;;;;;;;5047409;28;20368;-73
2021/12/31 05:59:07;;;;;;;2.67;1.15;;;;;;;;;;5044168;28;20559;-74
2021/12/31 06:01:34;;;;;;;1.50;1.30;;;;;;;;;;5048489;28;20203;-74
2021/12/31 06:04:02;;;;;;;1.98;1.40;;;;;;;;;;5050350;28;20211;-74
2021/12/31 06:06:29;;;;;;;2.08;1.15;;;;;;;;;;5049561;28;20206;-74
2021/12/31 06:08:57;;;;;;;1.40;1.30;;;;;;;;;;5047066;28;20202;-73
2021/12/31 06:11:24;;;;;;;1.63;1.17;;;;;;;;;;5043836;28;20690;-73
2021/12/31 06:14:00;;;;;;;5.72;1.85;;;;;;;;;;5044798;28;20667;-73
2021/12/31 06:16:27;;;;;;;1.75;1.40;;;;;;;;;;5039337;28;20208;-73
2021/12/31 06:18:55;;;;;;;1.60;1.42;;;;;;;;;;5044273;28;20203;-73
2021/12/31 06:21:23;;;;;;;3.65;1.30;;;;;;;;;;5053404;28;20191;-73
2021/12/31 06:23:50;;;;;;;1.65;1.20;;;;;;;;;;5044627;28;20214;-73
2021/12/31 06:26:17;;;;;;;1.90;1.35;;;;;;;;;;5053120;28;20202;-73
2021/12/31 06:28:44;;;;;;;3.63;1.20;;;;;;;;;;5057077;28;20198;-73
2021/12/31 06:31:11;;;;;;;1.60;1.33;;;;;;;;;;5052820;28;20219;-73
2021/12/31 06:33:38;;;;;;;1.83;1.17;;;;;;;;;;5055620;28;20552;-73
2021/12/31 06:36:06;;;;;;;3.22;1.27;;;;;;;;;;5055822;28;20220;-73
2021/12/31 06:38:34;;;;;;;2.75;1.40;;;;;;;;;;5052618;28;20215;-73
2021/12/31 06:41:01;;;;;;;5.47;1.40;;;;;;;;;;5052141;28;20191;-72
2021/12/31 06:43:28;;;;;;;1.50;1.30;;;;;;;;;;5055080;28;20849;-73
2021/12/31 06:45:55;;;;;;;2.22;1.52;;;;;;;;;;5052298;28;20203;-73
2021/12/31 06:48:22;;;;;;;3.35;1.42;;;;;;;;;;5057059;28;20642;-74
2021/12/31 06:50:49;;;;;;;1.48;1.38;;;;;;;;;;5053816;28;20210;-74
2021/12/31 06:53:16;;;;;;;2.38;1.60;;;;;;;;;;5058894;28;20198;-73
2021/12/31 06:55:45;;;;;;;1.92;1.50;;;;;;;;;;5050512;28;20195;-74
2021/12/31 06:58:12;;;;;;;3.05;1.67;;;;;;;;;;5051250;28;20229;-76
2021/12/31 07:00:41;;;;;;;5.70;1.70;;;;;;;;;;5044145;28;20234;-75
2021/12/31 07:03:08;;;;;;;2.05;1.40;;;;;;;;;;5053245;28;20221;-75
2021/12/31 07:05:36;;;;;;;2.00;1.63;;;;;;;;;;5056224;28;20191;-75
2021/12/31 07:08:03;;;;;;;2.30;1.20;;;;;;;;;;5049834;28;20701;-75
2021/12/31 07:10:30;;;;;;;2.28;1.40;;;;;;;;;;5050315;28;20694;-76
2021/12/31 07:12:58;;;;;;;2.22;1.38;;;;;;;;;;5053729;28;20725;-74
2021/12/31 07:15:26;;;;;;;1.50;1.40;;;;;;;;;;5054006;28;20202;-76
2021/12/31 07:17:53;;;;;;;1.42;1.27;;;;;;;;;;5057975;28;20249;-76
2021/12/31 07:20:21;;;;;;;1.70;1.33;;;;;;;;;;5058252;28;20218;-76
2021/12/31 07:22:48;;;;;;;1.80;1.33;;;;;;;;;;5049792;28;20638;-76
2021/12/31 07:25:15;;;;;;;3.05;1.42;;;;;;;;;;5044255;28;20655;-76
2021/12/31 07:27:42;;;;;;;6.43;1.10;;;;;;;;;;5057157;28;20547;-76
2021/12/31 07:30:12;;;;;;;2.47;1.38;;;;;;;;;;5052426;28;20667;-76
2021/12/31 07:32:40;;;;;;;3.08;1.63;;;;;;;;;;5052467;28;20222;-76
2021/12/31 07:35:07;;;;;;;2.58;1.50;;;;;;;;;;5055577;28;20205;-75
2021/12/31 07:37:34;;;;;;;2.80;1.20;;;;;;;;;;5059965;28;20199;-75
2021/12/31 07:40:04;;;;;;;2.58;1.30;;;;;;;;;;5048312;28;20226;-75
2021/12/31 07:42:31;;;;;;;2.05;1.50;;;;;;;;;;5050300;28;20283;-75
2021/12/31 07:44:58;;;;;;;4.30;1.35;;;;;;;;;;5052218;28;20449;-76
2021/12/31 07:47:27;;;;;;;1.85;1.55;;;;;;;;;;5035603;28;20215;-75
2021/12/31 07:49:54;;;;;;;3.88;1.50;;;;;;;;;;5046239;28;20584;-76
2021/12/31 07:52:21;;;;;;;1.65;1.55;;;;;;;;;;5053481;28;20694;-75
2021/12/31 07:54:48;;;;;;;2.03;1.33;;;;;;;;;;5042292;28;20203;-75
2021/12/31 07:57:15;;;;;;;2.05;1.20;;;;;;;;;;5052341;28;20574;-76
2021/12/31 07:59:42;;;;;;;1.85;1.00;;;;;;;;;;5051144;28;20682;-76
2021/12/31 08:02:09;;;;;;;3.17;1.40;;;;;;;;;;5051256;28;20202;-76
2021/12/31 08:04:37;;;;;;;2.13;1.45;;;;;;;;;;5052993;28;20198;-75
2021/12/31 08:07:05;;;;;;;1.63;1.20;;;;;;;;;;5034135;28;20290;-76
2021/12/31 08:09:32;;;;;;;3.45;1.60;;;;;;;;;;5051737;28;20198;-75
2021/12/31 08:11:59;;;;;;;1.98;1.67;;;;;;;;;;5055389;28;20218;-76
2021/12/31 08:14:26;;;;;;;1.42;1.33;;;;;;;;;;5052430;28;20195;-76
2021/12/31 08:16:53;;;;;;;2.55;1.38;;;;;;;;;;5038319;28;20385;-76
2021/12/31 08:19:20;;;;;;;2.00;1.13;;;;;;;;;;5041404;28;20199;-75
2021/12/31 08:21:48;;;;;;;3.55;1.73;;;;;;;;;;5056569;28;20207;-75
2021/12/31 08:24:15;;;;;;;2.55;1.45;;;;;;;;;;5063025;28;20203;-75
2021/12/31 08:26:42;;;;;;;2.33;1.33;;;;;;;;;;5054522;28;20202;-76
2021/12/31 08:29:12;;;;;;;3.30;1.40;;;;;;;;;;5063135;28;20209;-76
2021/12/31 08:31:40;;;;;;;2.28;1.45;;;;;;;;;;5052511;28;20224;-76
2021/12/31 08:34:08;;;;;;;2.05;1.80;;;;;;;;;;5053050;28;20199;-76
2021/12/31 08:36:35;;;;;;;2.58;1.25;;;;;;;;;;5056459;28;20543;-76
2021/12/31 08:39:04;;;;;;;1.40;1.23;;;;;;;;;;5051710;28;20214;-76
2021/12/31 08:41:31;;;;;;;1.83;1.35;;;;;;;;;;5051262;28;20199;-76
2021/12/31 08:43:58;;;;;;;1.55;1.45;;;;;;;;;;5051747;28;20547;-75
2021/12/31 08:46:25;;;;;;;2.70;1.63;;;;;;;;;;5051268;28;20737;-76
2021/12/31 08:48:52;;;;;;;1.40;1.30;;;;;;;;;;5051398;28;20207;-76
2021/12/31 08:51:20;;;;;;;1.77;1.25;;;;;;;;;;5056272;28;20209;-75
2021/12/31 08:53:47;;;;;;;2.15;1.40;;;;;;;;;;5052632;28;20199;-76
2021/12/31 08:56:15;;;;;;;2.55;1.20;;;;;;;;;;5056426;28;20190;-76
2021/12/31 08:58:42;;;;;;;1.52;1.25;;;;;;;;;;5044428;28;20285;-76
2021/12/31 09:01:09;;;;;;;2.08;1.98;;;;;;;;;;5049515;28;20230;-75
2021/12/31 09:03:36;;;;;;;2.47;1.20;;;;;;;;;;5046227;28;20569;-75
2021/12/31 09:06:03;;;;;;;3.25;1.50;;;;;;;;;;5051625;28;20194;-73
2021/12/31 09:08:30;;;;;;;3.97;1.75;;;;;;;;;;5050339;28;20654;-76
2021/12/31 09:10:58;;;;;;;2.88;1.80;;;;;;;;;;5041525;28;20198;-75
2021/12/31 09:13:27;;;;;;;1.92;1.77;;;;;;;;;;5050075;28;20246;-76
2021/12/31 09:15:54;;;;;;;3.63;1.45;;;;;;;;;;5032084;28;20279;-75
2021/12/31 09:18:21;;;;;;;2.30;1.50;;;;;;;;;;5032031;28;20210;-74
2021/12/31 09:20:49;;;;;;;2.17;1.50;;;;;;;;;;5043085;28;20210;-74
2021/12/31 09:23:16;;;;;;;2.38;1.30;;;;;;;;;;5050921;28;20707;-74
2021/12/31 09:25:43;;;;;;;3.40;1.50;;;;;;;;;;5046672;28;20666;-75
2021/12/31 09:28:10;;;;;;;1.85;1.42;;;;;;;;;;5050940;28;20558;-75
2021/12/31 09:30:38;;;;;;;3.00;2.10;;;;;;;;;;5048043;28;20835;-75
2021/12/31 09:33:05;;;;;;;2.88;1.30;;;;;;;;;;5049440;28;20238;-75
2021/12/31 09:35:33;;;;;;;3.65;1.83;;;;;;;;;;5048708;28;20673;-75
2021/12/31 09:38:06;;;;;;;6.03;2.28;;;;;;;;;;5044156;28;20226;-75
2021/12/31 09:40:33;;;;;;;2.10;1.40;;;;;;;;;;5047660;28;20209;-75
2021/12/31 09:43:04;;;;;;;3.35;2.10;;;;;;;;;;5043032;28;20203;-74
2021/12/31 09:45:33;;;;;;;1.67;1.58;;;;;;;;;;5046865;28;20213;-75
2021/12/31 09:48:01;;;;;;;4.32;1.65;;;;;;;;;;5038277;28;20199;-75
2021/12/31 09:50:29;;;;;;;2.15;1.30;;;;;;;;;;5048870;28;20191;-75
2021/12/31 09:52:56;;;;;;;3.08;1.70;;;;;;;;;;5044225;28;20632;-73
2021/12/31 09:55:35;;;;;;;2.95;1.40;;;;;;;;;;5047725;28;20671;-74
2021/12/31 09:58:02;;;;;;;1.60;1.50;;;;;;;;;;5047785;28;20190;-75
2021/12/31 10:00:29;;;;;;;1.75;1.00;;;;;;;;;;5047913;28;20215;-74
2021/12/31 10:03:10;;;;;;;2.58;1.48;;;;;;;;;;5047430;28;20199;-74
2021/12/31 10:05:41;;;;;;;1.38;1.20;;;;;;;;;;5048961;28;20213;-74
2021/12/31 10:08:13;;;;;;;1.70;1.52;;;;;;;;;;5049732;28;20217;-75
2021/12/31 10:10:40;;;;;;;3.33;1.48;;;;;;;;;;5043899;28;20673;-74
2021/12/31 10:13:08;;;;;;;2.60;2.10;;;;;;;;;;5044029;28;20230;-74
2021/12/31 10:15:39;;;;;;;2.33;1.50;;;;;;;;;;5037511;28;20644;-74
2021/12/31 10:18:12;;;;;;;1.48;1.38;;;;;;;;;;5033278;28;20195;-75
2021/12/31 10:20:48;;;;;;;3.65;1.00;;;;;;;;;;5045040;28;20256;-74
2021/12/31 10:23:16;;;;;;;1.88;1.70;;;;;;;;;;5045928;28;20208;-74
2021/12/31 10:25:43;;;;;;;1.52;1.30;;;;;;;;;;5045069;28;20199;-74
2021/12/31 10:28:11;;;;;;;3.03;1.33;;;;;;;;;;5043997;28;20202;-74
2021/12/31 10:30:39;;;;;;;1.50;1.20;;;;;;;;;;5044211;28;20210;-74
2021/12/31 10:33:06;;;;;;;1.98;1.30;;;;;;;;;;5037845;28;20612;-74
2021/12/31 10:35:42;;;;;;;2.15;1.30;;;;;;;;;;5050007;28;20202;-75
2021/12/31 10:38:11;;;;;;;3.13;1.40;;;;;;;;;;5043151;28;20657;-74
2021/12/31 10:40:40;;;;;;;1.35;1.15;;;;;;;;;;5040167;28;20259;-73
2021/12/31 10:43:08;;;;;;;2.83;1.38;;;;;;;;;;5044270;28;20231;-74
2021/12/31 10:45:35;;;;;;;2.28;1.33;;;;;;;;;;5040228;28;20198;-74
2021/12/31 10:48:06;;;;;;;3.40;1.52;;;;;;;;;;5048215;28;20210;-73
2021/12/31 10:50:33;;;;;;;2.28;1.80;;;;;;;;;;5050043;28;20222;-74
2021/12/31 10:53:07;;;;;;;1.60;1.10;;;;;;;;;;5050159;28;20218;-73
2021/12/31 10:55:39;;;;;;;2.22;1.55;;;;;;;;;;5045545;28;20198;-73
2021/12/31 10:58:07;;;;;;;3.95;1.60;;;;;;;;;;5049045;28;20296;-73
2021/12/31 11:00:35;;;;;;;1.90;1.30;;;;;;;;;;5049254;28;20222;-75
2021/12/31 11:03:02;;;;;;;1.75;1.60;;;;;;;;;;5051250;28;20218;-73
2021/12/31 11:05:29;;;;;;;1.98;1.33;;;;;;;;;;5054057;28;20601;-73
2021/12/31 11:08:01;;;;;;;1.67;1.30;;;;;;;;;;5052133;28;20216;-73
2021/12/31 11:10:31;;;;;;;2.58;1.60;;;;;;;;;;5047145;28;20670;-74
2021/12/31 11:12:58;;;;;;;1.38;1.27;;;;;;;;;;5053273;28;20226;-73
2021/12/31 11:15:25;;;;;;;4.90;1.60;;;;;;;;;;5052206;28;20935;-74
2021/12/31 11:17:52;;;;;;;1.60;1.38;;;;;;;;;;5047983;28;20202;-73
2021/12/31 11:20:22;;;;;;;1.58;1.30;;;;;;;;;;5045267;28;20618;-73
2021/12/31 11:22:49;;;;;;;1.60;1.35;;;;;;;;;;5050880;28;20198;-73
2021/12/31 11:25:24;;;;;;;2.67;1.73;;;;;;;;;;5050935;28;20206;-73
2021/12/31 11:27:53;;;;;;;2.55;1.75;;;;;;;;;;5049623;28;20226;-74
2021/12/31 11:30:44;;;;;;;1.77;1.40;;;;;;;;;;5052198;28;20211;-73
2021/12/31 11:33:14;;;;;;;4.18;1.60;;;;;;;;;;5045485;28;20225;-73
2021/12/31 11:35:43;;;;;;;1.83;1.40;;;;;;;;;;5051163;28;20198;-75
2021/12/31 11:38:15;;;;;;;1.50;1.40;;;;;;;;;;5052585;28;20217;-74
2021/12/31 11:40:45;;;;;;;1.90;1.63;;;;;;;;;;5046087;28;20694;-74
2021/12/31 11:43:17;;;;;;;1.67;1.58;;;;;;;;;;5053018;28;20191;-74
2021/12/31 11:45:44;;;;;;;6.30;2.13;;;;;;;;;;5048637;28;20214;-74
2021/12/31 11:48:30;;;;;;;1.40;1.27;;;;;;;;;;5052488;28;20210;-74
2021/12/31 11:51:06;;;;;;;2.25;1.40;;;;;;;;;;5052063;28;20495;-73
2021/12/31 11:53:33;;;;;;;2.58;2.38;;;;;;;;;;5051448;28;20211;-74
2021/12/31 11:56:00;;;;;;;2.78;1.70;;;;;;;;;;5048746;28;20195;-73
2021/12/31 11:58:38;;;;;;;1.60;1.50;;;;;;;;;;5052941;28;20195;-78
2021/12/31 12:01:24;;;;;;;3.15;1.65;;;;;;;;;;5045747;28;20306;-74
2021/12/31 12:03:51;;;;;;;1.98;1.60;;;;;;;;;;5051943;28;20191;-74
2021/12/31 12:06:33;;;;;;;1.50;1.40;;;;;;;;;;5047109;28;20210;-74
2021/12/31 12:09:00;;;;;;;2.13;1.50;;;;;;;;;;5050690;28;20195;-74
2021/12/31 12:11:42;;;;;;;1.85;1.63;;;;;;;;;;5051310;28;20203;-75
2021/12/31 12:14:24;;;;;;;2.45;1.40;;;;;;;;;;5051875;28;20721;-74
2021/12/31 12:16:59;;;;;;;1.58;1.30;;;;;;;;;;5046539;28;20199;-73
2021/12/31 12:19:41;;;;;;;2.42;1.80;;;;;;;;;;5048343;28;20195;-74
2021/12/31 12:22:08;;;;;;;1.83;1.25;;;;;;;;;;5051308;28;20190;-74
2021/12/31 12:24:35;;;;;;;1.40;1.27;;;;;;;;;;5049298;28;20195;-74
2021/12/31 12:27:02;;;;;;;1.60;1.20;;;;;;;;;;5048242;28;20202;-74
2021/12/31 12:29:29;;;;;;;2.22;1.50;;;;;;;;;;5045879;28;20464;-74
2021/12/31 12:32:11;;;;;;;2.70;1.70;;;;;;;;;;5047283;28;20211;-74
2021/12/31 12:34:38;;;;;;;1.45;1.35;;;;;;;;;;5038442;28;20254;-74
2021/12/31 12:37:05;;;;;;;1.90;1.25;;;;;;;;;;5047717;28;20207;-74
2021/12/31 12:39:32;;;;;;;3.05;1.52;;;;;;;;;;5045087;28;20199;-74
2021/12/31 12:41:59;;;;;;;2.08;1.30;;;;;;;;;;5047326;28;20206;-74
2021/12/31 12:44:28;;;;;;;1.67;1.50;;;;;;;;;;5045066;28;20655;-75
2021/12/31 12:46:56;;;;;;;2.60;1.38;;;;;;;;;;5038076;28;20676;-74
2021/12/31 12:49:26;;;;;;;2.55;1.65;;;;;;;;;;5042511;28;20249;-74
2021/12/31 12:51:54;;;;;;;1.55;1.30;;;;;;;;;;5042845;28;20335;-74
2021/12/31 12:54:22;;;;;;;1.58;1.45;;;;;;;;;;5046172;28;20248;-74
2021/12/31 12:56:50;;;;;;;1.67;1.45;;;;;;;;;;5047025;28;20207;-74
2021/12/31 12:59:21;;;;;;;2.83;1.73;;;;;;;;;;5048491;28;20229;-74
2021/12/31 13:01:48;;;;;;;1.40;1.30;;;;;;;;;;5045633;28;20269;-77
2021/12/31 13:04:16;;;;;;;2.58;1.42;;;;;;;;;;5040965;28;20676;-75
2021/12/31 13:06:46;;;;;;;1.52;1.40;;;;;;;;;;5044810;28;20200;-75
2021/12/31 13:09:15;;;;;;;2.40;1.35;;;;;;;;;;5048620;28;20199;-74
2021/12/31 13:11:45;;;;;;;4.05;1.50;;;;;;;;;;5037113;28;20222;-74
2021/12/31 13:14:13;;;;;;;1.42;1.33;;;;;;;;;;5048043;28;20225;-75
2021/12/31 13:16:40;;;;;;;2.72;1.50;;;;;;;;;;5040889;28;20719;-75
2021/12/31 13:19:09;;;;;;;4.50;1.42;;;;;;;;;;5047142;28;20436;-74
2021/12/31 13:21:36;;;;;;;2.38;1.33;;;;;;;;;;5030017;28;20291;-75
2021/12/31 13:24:05;;;;;;;2.42;1.40;;;;;;;;;;5045052;28;20218;-75
2021/12/31 13:26:34;;;;;;;1.70;1.55;;;;;;;;;;5037714;28;20199;-75
2021/12/31 13:29:02;;;;;;;1.80;1.60;;;;;;;;;;5047436;28;20226;-75
2021/12/31 13:31:33;;;;;;;2.03;1.83;;;;;;;;;;5045601;28;20210;-75
2021/12/31 13:34:11;;;;;;;1.55;1.33;;;;;;;;;;5047717;28;20593;-75
2021/12/31 13:36:44;;;;;;;1.70;1.50;;;;;;;;;;5044391;28;20245;-75
2021/12/31 13:39:14;;;;;;;2.90;1.75;;;;;;;;;;5036260;28;20207;-75
2021/12/31 13:41:49;;;;;;;2.33;1.30;;;;;;;;;;5044382;28;20203;-75
2021/12/31 13:44:17;;;;;;;2.03;1.67;;;;;;;;;;5044386;28;20206;-74
2021/12/31 13:46:45;;;;;;;2.35;2.10;;;;;;;;;;5039939;28;20202;-74
2021/12/31 13:49:14;;;;;;;2.35;1.55;;;;;;;;;;5046605;28;20670;-74
2021/12/31 13:51:42;;;;;;;1.77;1.67;;;;;;;;;;5047999;28;20613;-74
2021/12/31 13:54:10;;;;;;;2.97;1.50;;;;;;;;;;5045606;28;20229;-75
2021/12/31 13:56:39;;;;;;;2.53;1.65;;;;;;;;;;5045230;28;20203;-75
2021/12/31 13:59:20;;;;;;;2.10;1.75;;;;;;;;;;5047085;28;20194;-75
2021/12/31 14:02:03;;;;;;;2.00;1.15;;;;;;;;;;5034853;28;20467;-75
2021/12/31 14:04:30;;;;;;;2.38;1.88;;;;;;;;;;5035217;28;20199;-75
2021/12/31 14:07:06;;;;;;;2.25;1.90;;;;;;;;;;5041476;28;20647;-75
2021/12/31 14:09:33;;;;;;;1.75;1.40;;;;;;;;;;5044544;28;20390;-75
2021/12/31 14:12:04;;;;;;;3.17;1.85;;;;;;;;;;5048393;28;20206;-75
2021/12/31 14:14:31;;;;;;;3.65;1.92;;;;;;;;;;5050017;28;20210;-75
2021/12/31 14:16:58;;;;;;;2.42;1.70;;;;;;;;;;5037379;28;20229;-75
2021/12/31 14:19:26;;;;;;;1.73;1.25;;;;;;;;;;5048648;28;20553;-75
2021/12/31 14:21:53;;;;;;;1.60;1.40;;;;;;;;;;5042120;28;20251;-75
2021/12/31 14:24:20;;;;;;;3.17;2.08;;;;;;;;;;5043126;28;20195;-75
2021/12/31 14:26:47;;;;;;;6.18;1.88;;;;;;;;;;5048570;28;20566;-75
2021/12/31 14:29:17;;;;;;;2.40;1.33;;;;;;;;;;5041613;28;20199;-75
2021/12/31 14:31:45;;;;;;;1.85;1.65;;;;;;;;;;5037989;28;20211;-75
2021/12/31 14:34:12;;;;;;;6.05;2.45;;;;;;;;;;5052217;28;20476;-75
2021/12/31 14:36:53;;;;;;;1.98;1.70;;;;;;;;;;5051885;28;20582;-75
2021/12/31 14:39:21;;;;;;;3.95;1.73;;;;;;;;;;5047932;28;20196;-75
2021/12/31 14:41:49;;;;;;;1.67;1.55;;;;;;;;;;5052248;28;20289;-75
2021/12/31 14:44:17;;;;;;;1.52;1.42;;;;;;;;;;5049733;28;20187;-75
2021/12/31 14:46:44;;;;;;;2.85;2.30;;;;;;;;;;5044553;28;20199;-75
2021/12/31 14:49:11;;;;;;;4.90;2.30;;;;;;;;;;5053244;28;20282;-75
2021/12/31 14:51:38;;;;;;;4.93;1.50;;;;;;;;;;5054391;28;20558;-75